createdAt,value
2023-02-18T00:00:55.124Z,8.20
2023-02-18T00:01:58.171Z,7.45
2023-02-18T00:03:01.193Z,6.80
2023-02-18T00:04:04.392Z,7.47
2023-02-18T00:05:07.359Z,7.22
2023-02-18T00:06:23.718Z,6.40
2023-02-18T00:07:27.078Z,6.05
2023-02-18T00:08:30.001Z,5.70
2023-02-18T00:09:33.426Z,6.18
2023-02-18T00:10:36.433Z,5.80
2023-02-18T00:11:39.641Z,5.28
2023-02-18T00:12:43.006Z,5.12
2023-02-18T00:13:57.338Z,5.47
2023-02-18T00:15:00.503Z,4.93
2023-02-18T00:16:05.336Z,4.50
2023-02-18T00:17:08.486Z,4.53
2023-02-18T00:18:11.429Z,4.47
2023-02-18T00:19:19.504Z,4.50
2023-02-18T00:20:22.798Z,4.80
2023-02-18T00:21:26.113Z,4.18
2023-02-18T00:22:29.488Z,4.60
2023-02-18T00:23:33.053Z,4.60
2023-02-18T00:24:36.159Z,4.35
2023-02-18T00:25:39.129Z,3.50
2023-02-18T00:26:42.901Z,3.50
2023-02-18T00:27:46.196Z,3.62
2023-02-18T00:28:50.028Z,3.83
2023-02-18T00:29:53.056Z,3.55
2023-02-18T00:30:56.496Z,4.10
2023-02-18T00:31:59.728Z,3.25
2023-02-18T00:33:03.029Z,3.67
2023-02-18T00:34:06.657Z,3.65
2023-02-18T00:35:09.565Z,3.12
2023-02-18T00:36:16.833Z,3.00
2023-02-18T00:37:19.919Z,3.12
2023-02-18T00:38:25.819Z,3.22
2023-02-18T00:39:29.213Z,3.10
2023-02-18T00:40:32.240Z,3.20
2023-02-18T00:41:36.417Z,3.20
2023-02-18T00:42:39.434Z,2.95
2023-02-18T00:43:43.322Z,3.22
2023-02-18T00:44:46.371Z,3.22
2023-02-18T00:45:49.442Z,3.20
2023-02-18T00:46:53.662Z,2.75
2023-02-18T00:47:56.702Z,2.80
2023-02-18T00:48:59.813Z,2.72
2023-02-18T00:50:02.849Z,2.50
2023-02-18T00:51:07.501Z,2.60
2023-02-18T00:52:10.504Z,2.70
2023-02-18T00:53:13.915Z,3.33
2023-02-18T00:54:17.109Z,2.70
2023-02-18T00:55:20.098Z,2.35
2023-02-18T00:56:23.862Z,2.25
2023-02-18T00:57:26.776Z,2.30
2023-02-18T00:58:30.140Z,2.08
2023-02-18T00:59:33.590Z,1.98
2023-02-18T01:00:37.019Z,2.03
2023-02-18T01:01:40.198Z,1.90
2023-02-18T01:02:44.219Z,1.73
2023-02-18T01:03:47.760Z,1.65
2023-02-18T01:04:50.762Z,1.85
2023-02-18T01:05:54.064Z,2.00
2023-02-18T01:06:56.999Z,1.58
2023-02-18T01:08:00.219Z,1.52
2023-02-18T01:09:03.270Z,1.80
2023-02-18T01:10:06.996Z,1.58
2023-02-18T01:11:11.627Z,1.60
2023-02-18T01:12:14.656Z,1.25
2023-02-18T01:13:18.050Z,1.23
2023-02-18T01:14:20.954Z,1.37
2023-02-18T01:15:24.204Z,1.20
2023-02-18T01:16:27.262Z,1.27
2023-02-18T01:17:31.002Z,1.20
2023-02-18T01:18:33.996Z,1.25
2023-02-18T01:19:37.026Z,1.25
2023-02-18T01:20:42.055Z,1.10
2023-02-18T01:21:45.162Z,1.17
2023-02-18T01:22:48.429Z,0.95
2023-02-18T01:23:51.396Z,1.12
2023-02-18T01:24:54.389Z,1.30
2023-02-18T01:25:58.979Z,1.10
2023-02-18T01:27:02.034Z,1.12
2023-02-18T01:28:07.120Z,1.40
2023-02-18T01:29:10.080Z,1.00
2023-02-18T01:30:15.899Z,1.10
2023-02-18T01:31:18.976Z,0.90
2023-02-18T01:32:22.191Z,1.12
2023-02-18T01:33:25.196Z,1.20
2023-02-18T01:34:28.677Z,1.10
2023-02-18T01:35:31.752Z,1.23
2023-02-18T01:36:35.065Z,1.10
2023-02-18T01:37:38.153Z,1.10
2023-02-18T01:38:41.344Z,1.20
2023-02-18T01:39:44.427Z,1.05
2023-02-18T01:40:54.053Z,1.05
2023-02-18T01:41:57.320Z,0.82
2023-02-18T01:43:00.895Z,0.85
2023-02-18T01:44:24.946Z,0.85
2023-02-18T01:45:34.078Z,1.02
2023-02-18T01:46:37.263Z,1.05
2023-02-18T01:47:40.687Z,0.85
2023-02-18T01:48:58.424Z,0.70
2023-02-18T01:50:01.416Z,0.80
2023-02-18T01:51:07.015Z,0.85
2023-02-18T01:52:16.096Z,0.60
2023-02-18T01:53:29.427Z,0.77
2023-02-18T01:54:36.335Z,0.62
2023-02-18T01:55:39.700Z,0.68
2023-02-18T01:57:18.586Z,0.62
2023-02-18T01:58:22.149Z,0.65
2023-02-18T01:59:31.334Z,0.70
2023-02-18T02:00:34.599Z,0.93
2023-02-18T02:01:39.747Z,0.73
2023-02-18T02:02:45.784Z,0.95
2023-02-18T02:03:48.817Z,0.60
2023-02-18T02:04:52.536Z,0.80
2023-02-18T02:05:55.699Z,0.70
2023-02-18T02:06:58.863Z,0.80
2023-02-18T02:08:03.541Z,0.60
2023-02-18T02:09:09.992Z,0.85
2023-02-18T02:10:15.899Z,0.60
2023-02-18T02:11:40.046Z,0.60
2023-02-18T02:13:24.605Z,0.70
2023-02-18T02:14:36.269Z,0.60
2023-02-18T02:17:05.663Z,0.68
2023-02-18T02:18:39.123Z,1.10
2023-02-18T02:19:59.974Z,0.60
2023-02-18T02:21:41.057Z,0.85
2023-02-18T02:23:27.939Z,0.80
2023-02-18T02:24:39.822Z,0.62
2023-02-18T02:26:10.151Z,0.80
2023-02-18T02:27:20.816Z,0.73
2023-02-18T02:29:08.870Z,0.80
2023-02-18T02:30:41.010Z,0.57
2023-02-18T02:32:15.373Z,0.65
2023-02-18T02:33:39.854Z,0.70
2023-02-18T02:34:58.735Z,0.70
2023-02-18T02:36:15.113Z,0.75
2023-02-18T02:37:56.222Z,0.80
2023-02-18T02:39:25.296Z,0.73
2023-02-18T02:40:55.655Z,0.90
2023-02-18T02:42:03.776Z,0.52
2023-02-18T02:43:26.594Z,0.70
2023-02-18T02:44:55.818Z,0.70
2023-02-18T02:46:19.110Z,0.60
2023-02-18T02:47:33.826Z,0.80
2023-02-18T02:48:46.256Z,0.52
2023-02-18T02:50:03.947Z,0.70
2023-02-18T02:51:20.575Z,0.60
2023-02-18T02:52:31.102Z,0.80
2023-02-18T02:53:36.177Z,0.57
2023-02-18T02:54:39.268Z,0.80
2023-02-18T02:55:42.306Z,0.68
2023-02-18T02:56:45.587Z,0.85
2023-02-18T02:57:55.245Z,0.70
2023-02-18T02:59:06.753Z,1.00
2023-02-18T03:00:12.262Z,0.80
2023-02-18T03:01:54.736Z,0.57
2023-02-18T03:03:32.004Z,0.80
2023-02-18T03:04:45.036Z,0.80
2023-02-18T03:06:11.733Z,0.80
2023-02-18T03:07:29.753Z,0.90
2023-02-18T03:08:36.941Z,0.60
2023-02-18T03:09:46.034Z,0.90
2023-02-18T03:11:06.374Z,0.70
2023-02-18T03:12:24.061Z,0.70
2023-02-18T03:13:54.414Z,0.80
2023-02-18T03:15:18.760Z,0.70
2023-02-18T03:16:42.821Z,0.68
2023-02-18T03:18:29.452Z,0.50
2023-02-18T03:19:50.378Z,0.45
2023-02-18T03:21:04.922Z,0.70
2023-02-18T03:22:16.779Z,0.68
2023-02-18T03:23:27.487Z,0.70
2023-02-18T03:24:37.041Z,0.67
2023-02-18T03:25:40.757Z,0.73
2023-02-18T03:26:55.582Z,0.73
2023-02-18T03:28:05.246Z,0.57
2023-02-18T03:29:11.327Z,0.60
2023-02-18T03:30:24.149Z,0.75
2023-02-18T03:31:30.131Z,0.60
2023-02-18T03:32:35.861Z,0.80
2023-02-18T03:33:45.872Z,0.70
2023-02-18T03:34:56.348Z,0.80
2023-02-18T03:35:59.662Z,0.57
2023-02-18T03:37:03.349Z,0.60
2023-02-18T03:38:21.546Z,0.60
2023-02-18T03:39:27.920Z,0.65
2023-02-18T03:40:31.953Z,0.73
2023-02-18T03:41:35.832Z,0.73
2023-02-18T03:42:38.964Z,0.50
2023-02-18T03:43:52.907Z,0.70
2023-02-18T03:44:56.232Z,0.70
2023-02-18T03:46:00.082Z,0.57
2023-02-18T03:47:03.641Z,0.70
2023-02-18T03:48:07.243Z,0.80
2023-02-18T03:49:12.703Z,0.80
2023-02-18T03:50:15.831Z,0.80
2023-02-18T03:51:19.875Z,0.60
2023-02-18T03:52:22.951Z,0.70
2023-02-18T03:53:25.954Z,0.70
2023-02-18T03:54:28.983Z,0.70
2023-02-18T03:55:32.233Z,0.60
2023-02-18T03:56:36.741Z,0.80
2023-02-18T03:57:39.839Z,0.70
2023-02-18T03:58:42.996Z,0.82
2023-02-18T03:59:46.266Z,0.70
2023-02-18T04:00:49.280Z,0.60
2023-02-18T04:01:52.400Z,0.70
2023-02-18T04:02:55.457Z,0.60
2023-02-18T04:03:58.515Z,0.80
2023-02-18T04:05:01.576Z,0.80
2023-02-18T04:06:05.100Z,0.60
2023-02-18T04:07:08.256Z,0.70
2023-02-18T04:08:11.329Z,0.52
2023-02-18T04:09:14.515Z,0.80
2023-02-18T04:10:17.815Z,0.80
2023-02-18T04:11:21.015Z,0.88
2023-02-18T04:12:24.416Z,0.60
2023-02-18T04:13:28.116Z,0.73
2023-02-18T04:14:31.014Z,0.70
2023-02-18T04:15:35.392Z,0.70
2023-02-18T04:16:38.501Z,0.80
2023-02-18T04:17:41.656Z,0.80
2023-02-18T04:18:44.935Z,0.80
2023-02-18T04:19:47.950Z,0.60
2023-02-18T04:20:51.070Z,0.93
2023-02-18T04:21:54.157Z,0.82
2023-02-18T04:22:57.096Z,0.80
2023-02-18T04:24:01.276Z,0.90
2023-02-18T04:25:04.376Z,0.90
2023-02-18T04:26:07.621Z,0.90
2023-02-18T04:27:10.895Z,1.00
2023-02-18T04:28:17.027Z,0.85
2023-02-18T04:29:20.170Z,0.80
2023-02-18T04:30:23.509Z,0.98
2023-02-18T04:31:26.654Z,0.90
2023-02-18T04:32:29.827Z,0.90
2023-02-18T04:33:33.105Z,1.02
2023-02-18T04:34:36.858Z,1.00
2023-02-18T04:35:42.721Z,1.00
2023-02-18T04:36:45.823Z,1.20
2023-02-18T04:37:48.893Z,0.98
2023-02-18T04:38:51.936Z,0.90
2023-02-18T04:39:54.872Z,1.05
2023-02-18T04:40:58.721Z,0.82
2023-02-18T04:42:01.829Z,1.20
2023-02-18T04:43:04.905Z,0.95
2023-02-18T04:44:07.865Z,1.00
2023-02-18T04:45:11.117Z,1.05
2023-02-18T04:46:14.684Z,1.00
2023-02-18T04:47:18.059Z,0.90
2023-02-18T04:48:21.144Z,0.90
2023-02-18T04:49:24.225Z,1.25
2023-02-18T04:50:27.671Z,0.88
2023-02-18T04:51:30.792Z,0.80
2023-02-18T04:52:33.824Z,1.00
2023-02-18T04:53:36.918Z,1.23
2023-02-18T04:54:40.113Z,1.05
2023-02-18T04:55:43.181Z,0.93
2023-02-18T04:56:46.372Z,1.05
2023-02-18T04:57:49.637Z,1.00
2023-02-18T04:58:52.817Z,1.20
2023-02-18T04:59:55.881Z,1.02
2023-02-18T05:01:03.898Z,1.10
2023-02-18T05:02:07.239Z,1.10
2023-02-18T05:03:10.417Z,1.10
2023-02-18T05:04:13.427Z,0.88
2023-02-18T05:05:16.978Z,0.80
2023-02-18T05:06:20.039Z,1.05
2023-02-18T05:07:23.080Z,1.10
2023-02-18T05:08:26.188Z,1.12
2023-02-18T05:09:29.256Z,1.20
2023-02-18T05:10:32.267Z,1.02
2023-02-18T05:11:35.162Z,1.30
2023-02-18T05:12:38.038Z,1.02
2023-02-18T05:13:41.064Z,1.00
2023-02-18T05:14:44.015Z,1.00
2023-02-18T05:15:46.920Z,1.27
2023-02-18T05:16:49.840Z,0.73
2023-02-18T05:17:52.922Z,1.15
2023-02-18T05:18:56.235Z,1.15
2023-02-18T05:19:59.659Z,1.17
2023-02-18T05:21:02.727Z,0.95
2023-02-18T05:22:05.924Z,1.10
2023-02-18T05:23:08.970Z,1.17
2023-02-18T05:24:12.134Z,1.05
2023-02-18T05:25:15.119Z,1.00
2023-02-18T05:26:18.097Z,1.20
2023-02-18T05:27:21.323Z,1.33
2023-02-18T05:28:24.900Z,1.27
2023-02-18T05:29:28.029Z,1.30
2023-02-18T05:30:31.133Z,1.45
2023-02-18T05:31:34.556Z,1.35
2023-02-18T05:32:37.554Z,1.50
2023-02-18T05:33:40.523Z,1.30
2023-02-18T05:34:43.831Z,1.40
2023-02-18T05:35:46.991Z,1.17
2023-02-18T05:36:50.913Z,1.05
2023-02-18T05:37:54.093Z,1.02
2023-02-18T05:38:57.234Z,1.23
2023-02-18T05:40:00.352Z,1.35
2023-02-18T05:41:03.658Z,1.08
2023-02-18T05:42:06.762Z,1.15
2023-02-18T05:43:09.746Z,1.02
2023-02-18T05:44:31.154Z,1.30
2023-02-18T05:45:34.314Z,1.35
2023-02-18T05:46:37.438Z,1.27
2023-02-18T05:47:40.866Z,1.20
2023-02-18T05:48:46.218Z,1.40
2023-02-18T05:49:49.293Z,1.25
2023-02-18T05:50:54.959Z,1.23
2023-02-18T05:51:58.646Z,1.05
2023-02-18T05:53:01.866Z,1.37
2023-02-18T05:54:05.450Z,1.20
2023-02-18T05:55:08.744Z,1.12
2023-02-18T05:56:12.085Z,1.17
2023-02-18T05:57:16.488Z,1.20
2023-02-18T05:58:19.631Z,1.08
2023-02-18T05:59:23.531Z,0.90
2023-02-18T06:00:26.499Z,0.80
2023-02-18T06:01:30.179Z,1.10
2023-02-18T06:02:33.090Z,1.00
2023-02-18T06:03:36.206Z,0.73
2023-02-18T06:04:40.832Z,1.00
2023-02-18T06:05:43.991Z,0.90
2023-02-18T06:06:46.944Z,1.00
2023-02-18T06:07:50.042Z,0.80
2023-02-18T06:08:52.941Z,1.00
2023-02-18T06:09:55.882Z,0.90
2023-02-18T06:10:58.826Z,0.90
2023-02-18T06:12:01.772Z,1.15
2023-02-18T06:13:04.779Z,1.00
2023-02-18T06:14:08.862Z,1.00
2023-02-18T06:15:11.855Z,0.90
2023-02-18T06:16:14.933Z,0.80
2023-02-18T06:17:19.053Z,1.05
2023-02-18T06:18:22.756Z,1.05
2023-02-18T06:19:25.746Z,0.80
2023-02-18T06:20:28.851Z,1.08
2023-02-18T06:21:31.972Z,0.80
2023-02-18T06:22:35.153Z,1.00
2023-02-18T06:23:38.253Z,1.00
2023-02-18T06:24:41.820Z,1.20
2023-02-18T06:25:44.954Z,0.80
2023-02-18T06:26:47.925Z,1.08
2023-02-18T06:27:51.098Z,0.80
2023-02-18T06:28:55.065Z,0.93
2023-02-18T06:29:58.049Z,1.00
2023-02-18T06:31:01.161Z,1.35
2023-02-18T06:32:04.815Z,0.95
2023-02-18T06:33:07.794Z,0.88
2023-02-18T06:34:10.724Z,1.08
2023-02-18T06:35:13.744Z,0.80
2023-02-18T06:36:17.260Z,1.10
2023-02-18T06:37:20.393Z,1.10
2023-02-18T06:38:23.635Z,1.00
2023-02-18T06:39:26.525Z,0.90
2023-02-18T06:40:29.745Z,0.85
2023-02-18T06:41:33.201Z,0.90
2023-02-18T06:42:36.195Z,1.15
2023-02-18T06:43:39.533Z,0.85
2023-02-18T06:44:42.887Z,0.90
2023-02-18T06:45:46.371Z,1.15
2023-02-18T06:46:49.978Z,1.23
2023-02-18T06:47:53.333Z,1.00
2023-02-18T06:48:56.395Z,1.20
2023-02-18T06:49:59.701Z,0.95
2023-02-18T06:51:03.904Z,1.30
2023-02-18T06:52:07.016Z,1.20
2023-02-18T06:53:10.203Z,0.80
2023-02-18T06:54:13.231Z,0.90
2023-02-18T06:55:16.199Z,1.00
2023-02-18T06:56:19.427Z,0.90
2023-02-18T06:57:22.592Z,0.82
2023-02-18T06:58:26.723Z,0.85
2023-02-18T06:59:29.822Z,1.10
2023-02-18T07:00:33.426Z,1.10
2023-02-18T07:01:37.004Z,0.80
2023-02-18T07:02:39.953Z,0.85
2023-02-18T07:03:42.990Z,0.80
2023-02-18T07:04:46.639Z,0.77
2023-02-18T07:05:49.817Z,1.00
2023-02-18T07:06:52.728Z,0.90
2023-02-18T07:07:57.012Z,0.98
2023-02-18T07:09:00.106Z,0.88
2023-02-18T07:10:04.089Z,1.20
2023-02-18T07:11:07.618Z,1.17
2023-02-18T07:12:10.849Z,1.20
2023-02-18T07:13:14.496Z,1.10
2023-02-18T07:14:17.508Z,1.08
2023-02-18T07:15:24.561Z,0.90
2023-02-18T07:16:27.711Z,1.00
2023-02-18T07:17:30.885Z,1.00
2023-02-18T07:18:34.324Z,0.93
2023-02-18T07:19:37.264Z,1.00
2023-02-18T07:20:40.771Z,0.90
2023-02-18T07:21:44.077Z,0.93
2023-02-18T07:22:48.209Z,1.00
2023-02-18T07:23:51.307Z,1.23
2023-02-18T07:24:55.269Z,1.20
2023-02-18T07:26:12.521Z,1.10
2023-02-18T07:27:15.498Z,1.20
2023-02-18T07:28:18.565Z,1.30
2023-02-18T07:29:21.633Z,1.15
2023-02-18T07:30:24.965Z,1.58
2023-02-18T07:31:28.201Z,1.00
2023-02-18T07:32:31.871Z,1.20
2023-02-18T07:33:35.038Z,1.33
2023-02-18T07:34:38.548Z,1.20
2023-02-18T07:35:41.580Z,1.20
2023-02-18T07:36:44.481Z,1.65
2023-02-18T07:37:49.214Z,1.15
2023-02-18T07:38:52.189Z,1.50
2023-02-18T07:39:55.394Z,1.45
2023-02-18T07:40:58.822Z,1.37
2023-02-18T07:42:03.434Z,1.17
2023-02-18T07:43:06.487Z,1.00
2023-02-18T07:44:09.588Z,1.23
2023-02-18T07:45:13.830Z,1.30
2023-02-18T07:46:17.644Z,1.00
2023-02-18T07:47:20.863Z,1.02
2023-02-18T07:48:24.068Z,1.00
2023-02-18T07:49:27.115Z,0.90
2023-02-18T07:50:35.298Z,1.20
2023-02-18T07:51:40.731Z,1.20
2023-02-18T07:52:44.085Z,1.33
2023-02-18T07:53:47.454Z,1.30
2023-02-18T07:54:50.504Z,1.05
2023-02-18T07:55:53.673Z,1.30
2023-02-18T07:56:56.652Z,1.23
2023-02-18T07:58:01.260Z,1.12
2023-02-18T07:59:04.280Z,1.05
2023-02-18T08:00:08.213Z,1.15
2023-02-18T08:01:15.158Z,1.17
2023-02-18T08:02:23.910Z,1.30
2023-02-18T08:03:29.985Z,0.93
2023-02-18T08:04:33.050Z,1.00
2023-02-18T08:05:35.994Z,1.00
2023-02-18T08:06:42.796Z,1.30
2023-02-18T08:07:45.951Z,1.10
2023-02-18T08:08:49.369Z,0.90
2023-02-18T08:09:52.566Z,1.30
2023-02-18T08:11:01.001Z,1.10
2023-02-18T08:12:04.327Z,1.12
2023-02-18T08:13:07.386Z,1.60
2023-02-18T08:14:10.340Z,1.45
2023-02-18T08:15:13.981Z,1.20
2023-02-18T08:16:19.478Z,1.00
2023-02-18T08:17:22.462Z,1.33
2023-02-18T08:18:26.635Z,1.00
2023-02-18T08:19:29.680Z,1.20
2023-02-18T08:20:37.432Z,1.35
2023-02-18T08:21:41.037Z,1.00
2023-02-18T08:22:44.152Z,0.98
2023-02-18T08:23:47.902Z,0.90
2023-02-18T08:24:50.818Z,0.80
2023-02-18T08:25:54.964Z,0.80
2023-02-18T08:27:01.202Z,1.02
2023-02-18T08:28:05.244Z,0.95
2023-02-18T08:29:08.476Z,0.70
2023-02-18T08:30:11.931Z,0.85
2023-02-18T08:31:25.333Z,0.80
2023-02-18T08:32:29.805Z,0.80
2023-02-18T08:33:33.115Z,1.00
2023-02-18T08:34:36.028Z,0.90
2023-02-18T08:35:39.522Z,1.00
2023-02-18T08:36:42.637Z,0.60
2023-02-18T08:37:51.943Z,1.08
2023-02-18T08:38:56.384Z,1.25
2023-02-18T08:39:59.645Z,1.10
2023-02-18T08:41:04.574Z,1.02
2023-02-18T08:42:07.684Z,0.95
2023-02-18T08:43:11.184Z,0.80
2023-02-18T08:44:14.487Z,0.80
2023-02-18T08:45:17.527Z,0.98
2023-02-18T08:46:25.429Z,1.10
2023-02-18T08:48:18.659Z,0.90
2023-02-18T08:49:01.437Z,0.75
2023-02-18T08:50:05.984Z,0.90
2023-02-18T08:51:21.617Z,0.82
2023-02-18T08:52:24.918Z,1.00
2023-02-18T08:53:28.073Z,0.93
2023-02-18T08:54:31.925Z,1.00
2023-02-18T08:55:35.297Z,1.02
2023-02-18T08:56:38.885Z,0.77
2023-02-18T08:57:41.990Z,1.23
2023-02-18T08:58:45.564Z,1.08
2023-02-18T08:59:48.621Z,1.20
2023-02-18T09:00:51.852Z,1.00
2023-02-18T09:01:54.968Z,0.93
2023-02-18T09:02:58.121Z,0.70
2023-02-18T09:04:01.420Z,1.25
2023-02-18T09:05:04.616Z,1.12
2023-02-18T09:06:07.705Z,1.15
2023-02-18T09:07:11.978Z,1.08
2023-02-18T09:08:15.496Z,1.25
2023-02-18T09:09:18.644Z,1.30
2023-02-18T09:10:23.450Z,1.15
2023-02-18T09:11:26.653Z,1.00
2023-02-18T09:12:29.826Z,1.12
2023-02-18T09:13:34.260Z,1.37
2023-02-18T09:14:37.157Z,1.17
2023-02-18T09:15:40.135Z,1.05
2023-02-18T09:16:43.486Z,1.00
2023-02-18T09:17:46.558Z,0.82
2023-02-18T09:18:50.133Z,1.10
2023-02-18T09:19:55.389Z,1.00
2023-02-18T09:21:00.530Z,0.80
2023-02-18T09:22:03.595Z,1.00
2023-02-18T09:23:06.647Z,1.00
2023-02-18T09:24:10.174Z,1.05
2023-02-18T09:25:13.279Z,0.80
2023-02-18T09:26:19.151Z,0.80
2023-02-18T09:27:22.987Z,0.73
2023-02-18T09:28:26.314Z,0.82
2023-02-18T09:29:29.465Z,0.70
2023-02-18T09:30:32.428Z,0.70
2023-02-18T09:31:35.805Z,0.77
2023-02-18T09:32:38.931Z,0.80
2023-02-18T09:33:46.007Z,0.80
2023-02-18T09:34:49.501Z,0.85
2023-02-18T09:35:52.443Z,0.80
2023-02-18T09:36:55.462Z,0.90
2023-02-18T09:37:58.452Z,1.27
2023-02-18T09:39:01.956Z,0.70
2023-02-18T09:40:05.858Z,0.70
2023-02-18T09:41:19.289Z,0.80
2023-02-18T09:42:30.973Z,0.90
2023-02-18T09:43:45.124Z,0.70
2023-02-18T09:45:01.487Z,0.70
2023-02-18T09:46:10.253Z,0.70
2023-02-18T09:47:39.616Z,0.80
2023-02-18T09:48:45.559Z,1.10
2023-02-18T09:49:53.469Z,0.90
2023-02-18T09:50:57.404Z,0.60
2023-02-18T09:52:13.910Z,0.70
2023-02-18T09:53:17.669Z,1.00
2023-02-18T09:54:21.310Z,1.00
2023-02-18T09:55:30.204Z,0.88
2023-02-18T09:56:39.670Z,0.75
2023-02-18T09:57:51.642Z,0.70
2023-02-18T09:58:57.546Z,0.90
2023-02-18T10:00:13.653Z,0.80
2023-02-18T10:01:34.015Z,0.73
2023-02-18T10:02:38.933Z,0.77
2023-02-18T10:03:44.086Z,1.20
2023-02-18T10:04:52.530Z,0.93
2023-02-18T10:06:04.845Z,0.75
2023-02-18T10:07:20.009Z,0.90
2023-02-18T10:08:46.562Z,0.80
2023-02-18T10:09:52.751Z,1.00
2023-02-18T10:10:56.431Z,0.62
2023-02-18T10:12:17.810Z,0.57
2023-02-18T10:13:25.077Z,0.80
2023-02-18T10:14:28.594Z,0.55
2023-02-18T10:15:33.744Z,0.60
2023-02-18T10:16:36.892Z,0.77
2023-02-18T10:17:39.991Z,0.60
2023-02-18T10:18:49.415Z,0.70
2023-02-18T10:19:54.888Z,0.55
2023-02-18T10:21:14.665Z,0.60
2023-02-18T10:22:20.572Z,0.32
2023-02-18T10:23:25.259Z,0.60
2023-02-18T10:24:34.049Z,0.40
2023-02-18T10:25:44.939Z,0.50
2023-02-18T10:26:48.750Z,0.45
2023-02-18T10:27:54.051Z,0.50
2023-02-18T10:28:58.036Z,0.50
2023-02-18T10:30:27.224Z,0.50
2023-02-18T10:31:44.434Z,0.50
2023-02-18T10:32:48.946Z,0.85
2023-02-18T10:33:58.734Z,0.50
2023-02-18T10:35:21.546Z,0.50
2023-02-18T10:36:27.569Z,0.62
2023-02-18T10:37:48.960Z,0.45
2023-02-18T10:39:16.901Z,0.50
2023-02-18T10:40:43.835Z,0.30
2023-02-18T10:41:59.053Z,0.40
2023-02-18T10:43:20.885Z,0.57
2023-02-18T10:44:42.068Z,0.65
2023-02-18T10:45:55.053Z,0.70
2023-02-18T10:47:10.394Z,0.70
2023-02-18T10:48:54.027Z,0.57
2023-02-18T10:50:01.345Z,0.50
2023-02-18T10:51:16.623Z,1.00
2023-02-18T10:52:20.161Z,0.70
2023-02-18T10:53:40.104Z,0.80
2023-02-18T10:54:51.305Z,0.70
2023-02-18T10:55:56.944Z,0.88
2023-02-18T10:57:01.045Z,0.70
2023-02-18T10:58:04.852Z,0.90
2023-02-18T10:59:25.978Z,0.73
2023-02-18T11:00:39.207Z,1.30
2023-02-18T11:01:44.184Z,1.02
2023-02-18T11:02:48.431Z,0.80
2023-02-18T11:04:04.239Z,0.80
2023-02-18T11:05:28.065Z,1.00
2023-02-18T11:06:40.337Z,0.90
2023-02-18T11:07:49.166Z,0.90
2023-02-18T11:08:57.076Z,0.80
2023-02-18T11:10:10.520Z,1.12
2023-02-18T11:11:23.643Z,1.12
2023-02-18T11:12:30.808Z,1.00
2023-02-18T11:13:35.258Z,0.90
2023-02-18T11:14:50.600Z,0.90
2023-02-18T11:16:04.023Z,0.90
2023-02-18T11:17:17.837Z,1.30
2023-02-18T11:18:26.553Z,1.27
2023-02-18T11:19:39.018Z,1.10
2023-02-18T11:20:42.566Z,1.02
2023-02-18T11:21:45.866Z,1.12
2023-02-18T11:22:50.031Z,1.05
2023-02-18T11:23:55.245Z,1.08
2023-02-18T11:25:01.194Z,1.30
2023-02-18T11:26:07.764Z,1.17
2023-02-18T11:27:16.104Z,1.15
2023-02-18T11:28:19.224Z,1.05
2023-02-18T11:29:25.882Z,1.20
2023-02-18T11:30:39.867Z,1.00
2023-02-18T11:31:47.689Z,1.20
2023-02-18T11:32:55.826Z,1.20
2023-02-18T11:34:01.861Z,0.90
2023-02-18T11:35:05.817Z,1.30
2023-02-18T11:36:20.343Z,1.10
2023-02-18T11:37:24.668Z,1.27
2023-02-18T11:38:45.453Z,1.33
2023-02-18T11:39:54.901Z,1.23
2023-02-18T11:41:04.129Z,0.93
2023-02-18T11:42:07.537Z,1.20
2023-02-18T11:43:16.865Z,1.23
2023-02-18T11:44:31.115Z,1.10
2023-02-18T11:45:35.447Z,1.25
2023-02-18T11:46:38.494Z,1.20
2023-02-18T11:47:41.440Z,1.40
2023-02-18T11:48:45.153Z,1.40
2023-02-18T11:50:09.846Z,1.25
2023-02-18T11:51:36.900Z,1.23
2023-02-18T11:52:43.602Z,1.48
2023-02-18T11:54:04.711Z,1.00
2023-02-18T11:55:26.176Z,1.30
2023-02-18T11:56:35.881Z,1.50
2023-02-18T11:57:41.593Z,1.17
2023-02-18T11:58:48.061Z,1.20
2023-02-18T11:59:51.048Z,1.30
2023-02-18T12:01:01.505Z,1.27
2023-02-18T12:02:10.532Z,1.30
2023-02-18T12:03:27.534Z,1.30
2023-02-18T12:04:39.018Z,1.35
2023-02-18T12:07:04.878Z,1.20
2023-02-18T12:08:13.814Z,1.23
2023-02-18T12:09:19.888Z,1.30
2023-02-18T12:10:29.294Z,1.48
2023-02-18T12:11:41.770Z,1.00
2023-02-18T12:12:55.482Z,0.98
2023-02-18T12:13:59.583Z,0.95
2023-02-18T12:15:03.172Z,0.90
2023-02-18T12:16:43.990Z,0.90
2023-02-18T12:18:04.655Z,0.57
2023-02-18T12:19:23.840Z,1.20
2023-02-18T12:20:47.737Z,0.75
2023-02-18T12:21:56.485Z,0.80
2023-02-18T12:23:02.612Z,0.70
2023-02-18T12:24:37.344Z,0.80
2023-02-18T12:25:51.671Z,0.70
2023-02-18T12:27:29.374Z,0.70
2023-02-18T12:29:00.504Z,0.70
2023-02-18T12:30:42.315Z,0.55
2023-02-18T12:31:45.769Z,0.80
2023-02-18T12:33:06.516Z,0.73
2023-02-18T12:34:35.972Z,0.77
2023-02-18T12:35:52.708Z,0.82
2023-02-18T12:37:08.299Z,0.62
2023-02-18T12:38:30.360Z,0.52
2023-02-18T12:39:45.304Z,0.60
2023-02-18T12:41:20.847Z,0.70
2023-02-18T12:42:50.339Z,0.60
2023-02-18T12:44:02.121Z,0.77
2023-02-18T12:45:35.861Z,0.60
2023-02-18T12:46:55.613Z,0.65
2023-02-18T12:48:01.662Z,0.70
2023-02-18T12:49:47.032Z,0.50
2023-02-18T12:51:08.497Z,0.85
2023-02-18T12:53:19.232Z,0.60
2023-02-18T12:54:34.548Z,0.55
2023-02-18T12:55:55.939Z,0.60
2023-02-18T12:57:15.088Z,0.60
2023-02-18T12:58:54.721Z,0.70
2023-02-18T13:00:11.868Z,0.50
2023-02-18T13:01:38.921Z,0.65
2023-02-18T13:02:54.349Z,0.65
2023-02-18T13:04:24.648Z,0.40
2023-02-18T13:05:44.903Z,0.40
2023-02-18T13:07:15.248Z,0.50
2023-02-18T13:08:55.959Z,0.60
2023-02-18T13:10:32.020Z,0.55
2023-02-18T13:11:40.712Z,0.68
2023-02-18T13:12:48.922Z,0.50
2023-02-18T13:14:05.186Z,0.43
2023-02-18T13:15:28.882Z,0.50
2023-02-18T13:16:34.229Z,0.60
2023-02-18T13:17:39.911Z,0.47
2023-02-18T13:19:04.199Z,0.65
2023-02-18T13:20:10.449Z,0.50
2023-02-18T13:21:15.886Z,0.40
2023-02-18T13:22:23.023Z,0.40
2023-02-18T13:23:34.634Z,0.50
2023-02-18T13:25:44.022Z,0.45
2023-02-18T13:26:51.639Z,0.62
2023-02-18T13:28:34.484Z,0.40
2023-02-18T13:30:05.649Z,0.50
2023-02-18T13:31:15.071Z,0.60
2023-02-18T13:32:40.114Z,0.80
2023-02-18T13:34:20.915Z,0.88
2023-02-18T13:35:46.619Z,0.75
2023-02-18T13:37:13.506Z,0.50
2023-02-18T13:38:19.285Z,0.57
2023-02-18T13:39:24.560Z,0.60
2023-02-18T13:40:30.774Z,0.60
2023-02-18T13:41:42.220Z,0.47
2023-02-18T13:43:49.598Z,0.40
2023-02-18T13:44:55.279Z,0.45
2023-02-18T13:46:15.005Z,0.30
2023-02-18T13:47:44.801Z,0.30
2023-02-18T13:49:13.236Z,0.30
2023-02-18T13:50:33.262Z,0.32
2023-02-18T13:51:44.531Z,0.30
2023-02-18T13:52:48.620Z,0.37
2023-02-18T13:53:53.247Z,0.40
2023-02-18T13:54:56.558Z,0.47
2023-02-18T13:56:08.561Z,0.50
2023-02-18T13:57:20.844Z,0.60
2023-02-18T13:58:37.693Z,0.50
2023-02-18T13:59:51.512Z,0.40
2023-02-18T14:01:14.335Z,0.20
2023-02-18T14:02:20.912Z,0.40
2023-02-18T14:03:36.768Z,0.40
2023-02-18T14:04:42.850Z,0.40
2023-02-18T14:05:46.262Z,0.47
2023-02-18T14:07:15.176Z,0.22
2023-02-18T14:08:37.235Z,0.32
2023-02-18T14:09:44.093Z,0.35
2023-02-18T14:11:12.705Z,0.30
2023-02-18T14:12:44.699Z,0.40
2023-02-18T14:13:53.096Z,0.45
2023-02-18T14:14:58.807Z,0.30
2023-02-18T14:16:02.306Z,0.50
2023-02-18T14:17:20.723Z,0.40
2023-02-18T14:18:27.444Z,0.40
2023-02-18T14:19:30.697Z,0.57
2023-02-18T14:20:46.883Z,0.30
2023-02-18T14:21:50.726Z,0.47
2023-02-18T14:22:54.105Z,0.40
2023-02-18T14:24:04.127Z,0.40
2023-02-18T14:25:09.200Z,0.40
2023-02-18T14:26:15.187Z,0.30
2023-02-18T14:27:20.002Z,0.37
2023-02-18T14:28:35.308Z,0.40
2023-02-18T14:29:40.025Z,0.60
2023-02-18T14:30:43.929Z,0.47
2023-02-18T14:31:52.767Z,0.43
2023-02-18T14:33:02.041Z,0.45
2023-02-18T14:34:29.428Z,0.50
2023-02-18T14:35:40.418Z,0.73
2023-02-18T14:37:20.746Z,0.68
2023-02-18T14:39:03.431Z,0.30
2023-02-18T14:40:29.013Z,0.52
2023-02-18T14:41:43.939Z,0.65
2023-02-18T14:43:22.984Z,0.40
2023-02-18T14:45:03.208Z,0.37
2023-02-18T14:46:35.197Z,0.70
2023-02-18T14:47:55.757Z,0.60
2023-02-18T14:49:18.793Z,0.80
2023-02-18T14:50:23.588Z,0.65
2023-02-18T14:51:29.948Z,0.57
2023-02-18T14:52:45.650Z,0.60
2023-02-18T14:53:49.048Z,0.60
2023-02-18T14:54:52.827Z,0.60
2023-02-18T14:56:03.763Z,0.85
2023-02-18T14:57:15.351Z,0.70
2023-02-18T14:58:32.732Z,0.77
2023-02-18T14:59:41.079Z,0.68
2023-02-18T15:00:44.832Z,0.88
2023-02-18T15:01:49.013Z,0.60
2023-02-18T15:02:56.691Z,0.77
2023-02-18T15:04:01.938Z,0.98
2023-02-18T15:05:38.598Z,1.02
2023-02-18T15:06:43.095Z,1.00
2023-02-18T15:08:06.530Z,1.27
2023-02-18T15:09:21.546Z,1.20
2023-02-18T15:10:43.256Z,6.87
2023-02-18T15:11:57.232Z,6.12
2023-02-18T15:13:04.374Z,7.32
2023-02-18T15:14:27.909Z,8.80
2023-02-18T15:15:35.522Z,9.35
2023-02-18T15:16:40.072Z,10.65
2023-02-18T15:17:48.792Z,10.48
2023-02-18T15:18:59.768Z,10.82
2023-02-18T15:20:06.794Z,12.00